createdAt,value
2022-11-07T00:00:18.294Z,12.27
2022-11-07T00:05:18.248Z,12.28
2022-11-07T00:10:18.178Z,12.19
2022-11-07T00:15:18.154Z,12.19
2022-11-07T00:20:18.078Z,12.14
2022-11-07T00:25:18.025Z,12.05
2022-11-07T05:00:30.653Z,11.29
2022-11-07T05:05:30.581Z,11.47
2022-11-07T05:10:30.532Z,11.67
2022-11-07T05:15:30.919Z,11.63
2022-11-07T05:20:37.566Z,11.51
2022-11-07T05:25:30.372Z,11.53
2022-11-07T05:30:30.321Z,11.59
2022-11-07T05:35:30.302Z,11.48
2022-11-07T05:40:30.212Z,11.42
2022-11-07T05:45:30.153Z,11.34
2022-11-07T05:50:30.112Z,11.51
2022-11-07T05:55:30.046Z,11.61
2022-11-07T06:00:30.141Z,11.82
2022-11-07T06:05:29.937Z,11.95
2022-11-07T06:10:29.888Z,12.08
2022-11-07T06:15:29.828Z,12.11
2022-11-07T06:20:29.798Z,12.19
2022-11-07T06:25:29.848Z,12.25
2022-11-07T06:30:29.671Z,12.39
2022-11-07T06:35:29.615Z,12.40
2022-11-07T06:40:29.582Z,12.51
2022-11-07T06:45:29.511Z,12.55
2022-11-07T06:50:29.456Z,12.59
2022-11-07T06:55:29.400Z,12.61
2022-11-07T07:00:29.455Z,12.66
2022-11-07T07:05:29.298Z,12.78
2022-11-07T07:10:29.243Z,12.80
2022-11-07T07:15:30.746Z,12.83
2022-11-07T07:20:30.363Z,12.90
2022-11-07T07:25:29.088Z,12.94
2022-11-07T07:30:29.031Z,13.14
2022-11-07T07:35:28.971Z,13.25
2022-11-07T07:40:29.105Z,13.40
2022-11-07T07:45:28.851Z,13.46
2022-11-07T07:50:28.963Z,13.68
2022-11-07T07:55:28.817Z,13.55
2022-11-07T08:00:28.828Z,13.61
2022-11-07T08:05:28.650Z,13.71
2022-11-07T08:10:41.935Z,13.81
2022-11-07T08:15:29.537Z,13.83
2022-11-07T08:20:28.600Z,13.92
2022-11-07T08:25:28.430Z,14.07
2022-11-07T08:30:28.550Z,14.05
2022-11-07T08:35:28.320Z,14.01
2022-11-07T08:40:28.284Z,14.04
2022-11-07T08:45:28.215Z,14.07
2022-11-07T08:50:28.153Z,14.15
2022-11-07T08:55:28.101Z,14.25
2022-11-07T09:00:28.073Z,14.27
2022-11-07T09:05:27.994Z,14.50
2022-11-07T09:10:27.941Z,14.44
2022-11-07T09:15:27.887Z,14.56
2022-11-07T09:20:27.882Z,14.58
2022-11-07T09:25:27.774Z,14.76
2022-11-07T09:30:27.717Z,14.89
2022-11-07T09:35:27.668Z,14.98
2022-11-07T09:40:27.626Z,14.85
2022-11-07T09:45:27.631Z,14.68
2022-11-07T09:50:27.493Z,14.49
2022-11-07T09:55:27.439Z,14.38
2022-11-07T10:00:27.405Z,14.43
2022-11-07T10:05:27.329Z,14.43
2022-11-07T10:10:27.273Z,14.31
2022-11-07T10:15:27.221Z,14.31
2022-11-07T10:20:27.293Z,14.34
2022-11-07T10:25:27.126Z,14.39
2022-11-07T10:30:27.050Z,14.51
2022-11-07T10:35:26.998Z,14.53
2022-11-07T10:40:26.965Z,14.53
2022-11-07T10:45:26.886Z,14.71
2022-11-07T10:50:26.834Z,14.84
2022-11-07T10:55:26.782Z,15.10
2022-11-07T11:00:26.772Z,15.05
2022-11-07T11:05:26.664Z,15.22
2022-11-07T11:10:26.613Z,15.51
2022-11-07T11:15:29.941Z,15.67
2022-11-07T11:21:38.152Z,15.88
2022-11-07T11:26:38.072Z,16.09
2022-11-07T11:31:38.016Z,16.39
2022-11-07T11:36:37.958Z,16.58
2022-11-07T11:41:37.934Z,16.84
2022-11-07T11:46:37.901Z,16.95
2022-11-07T11:51:37.794Z,16.88
2022-11-07T11:56:37.740Z,17.20
2022-11-07T12:01:37.710Z,16.95
2022-11-07T12:06:37.628Z,16.69
2022-11-07T12:11:37.568Z,16.57
2022-11-07T12:16:37.511Z,16.41
2022-11-07T12:21:37.478Z,16.33
2022-11-07T12:26:37.405Z,16.28
2022-11-07T12:31:37.351Z,16.49
2022-11-07T12:36:37.296Z,16.81
2022-11-07T12:41:37.265Z,17.05
2022-11-07T12:46:37.187Z,17.24
2022-11-07T12:51:37.144Z,17.29
2022-11-07T12:56:37.071Z,17.10
2022-11-07T13:01:37.146Z,16.84
2022-11-07T13:06:36.975Z,16.93
2022-11-07T13:11:36.901Z,16.87
2022-11-07T13:16:36.854Z,16.85
2022-11-07T13:21:36.833Z,17.09
2022-11-07T13:26:52.165Z,17.16
2022-11-07T13:31:37.690Z,17.00
2022-11-07T13:36:36.635Z,16.75
2022-11-07T13:41:36.601Z,16.75
2022-11-07T13:46:36.537Z,16.72
2022-11-07T13:51:36.463Z,16.68
2022-11-07T13:56:36.419Z,16.74
2022-11-07T14:01:36.616Z,16.78
2022-11-07T14:06:36.296Z,16.84
2022-11-07T14:11:36.254Z,16.74
2022-11-07T14:16:36.209Z,16.67
2022-11-07T14:21:36.167Z,16.58
2022-11-07T14:26:39.963Z,16.63
2022-11-07T14:31:37.040Z,16.61
2022-11-07T14:36:35.968Z,16.53
2022-11-07T14:41:35.943Z,16.51
2022-11-07T14:46:35.882Z,16.60
2022-11-07T14:51:35.803Z,16.50
2022-11-07T14:56:35.770Z,16.43
2022-11-07T15:01:35.851Z,16.41
2022-11-07T15:06:35.639Z,16.38
2022-11-07T15:11:35.607Z,16.25
2022-11-07T15:16:35.541Z,16.33
2022-11-07T15:21:35.504Z,16.24
2022-11-07T15:26:35.433Z,16.17
2022-11-07T15:31:35.378Z,15.93
2022-11-07T15:36:40.836Z,15.98
2022-11-07T15:41:36.286Z,15.79
2022-11-07T15:46:35.210Z,15.83
2022-11-07T15:51:35.154Z,15.87
2022-11-07T15:56:35.082Z,15.98
2022-11-07T16:01:35.156Z,15.91
2022-11-07T16:06:34.997Z,15.85
2022-11-07T16:11:34.910Z,15.81
2022-11-07T16:16:34.876Z,15.84
2022-11-07T16:21:34.859Z,15.79
2022-11-07T16:26:34.748Z,15.78
2022-11-07T16:31:34.717Z,15.76
2022-11-07T16:36:34.660Z,15.78
2022-11-07T16:41:34.597Z,15.84
2022-11-07T16:46:34.535Z,15.81
2022-11-07T16:51:34.478Z,15.77
2022-11-07T16:56:34.410Z,15.85
2022-11-07T17:01:34.496Z,15.76
2022-11-07T17:06:34.312Z,15.81
2022-11-07T17:11:34.243Z,15.76
2022-11-07T17:16:34.782Z,15.81
2022-11-07T17:21:41.202Z,15.71
2022-11-07T17:26:34.078Z,15.69
2022-11-07T17:31:34.036Z,15.65
2022-11-07T17:36:37.562Z,15.63
2022-11-07T17:41:33.951Z,15.67
2022-11-07T17:46:33.873Z,15.65
2022-11-07T17:51:33.824Z,15.61
2022-11-07T17:56:33.751Z,15.60
2022-11-07T18:01:33.872Z,15.61
2022-11-07T18:06:33.651Z,15.61
2022-11-07T18:11:33.582Z,15.57
2022-11-07T18:16:33.532Z,15.56
2022-11-07T18:21:33.507Z,15.51
2022-11-07T18:26:33.429Z,15.46
2022-11-07T18:31:33.367Z,15.52
2022-11-07T18:36:33.349Z,15.49
2022-11-07T18:41:33.266Z,15.43
2022-11-07T18:46:33.201Z,15.47
2022-11-07T18:51:33.154Z,15.48
2022-11-07T18:56:33.081Z,15.43
2022-11-07T19:01:33.171Z,15.44
2022-11-07T19:06:32.992Z,15.33
2022-11-07T19:11:32.911Z,15.47
2022-11-07T19:16:32.873Z,15.49
2022-11-07T19:21:32.840Z,15.47
2022-11-07T19:26:32.744Z,15.44
2022-11-07T19:31:34.972Z,15.48
2022-11-07T19:36:32.643Z,15.45
2022-11-07T19:41:32.610Z,15.45
2022-11-07T19:46:32.535Z,15.47
2022-11-07T19:51:32.479Z,15.37
2022-11-07T19:56:32.423Z,15.40
2022-11-07T20:01:32.785Z,15.33
2022-11-07T20:06:32.322Z,15.35
2022-11-07T20:11:32.247Z,15.32
2022-11-07T20:16:32.200Z,15.14
2022-11-07T20:21:32.161Z,14.87
2022-11-07T20:26:32.089Z,14.65
2022-11-07T20:31:32.030Z,14.61
2022-11-07T20:36:31.983Z,14.51
2022-11-07T20:41:31.948Z,14.47
2022-11-07T20:46:31.874Z,14.37
2022-11-07T20:51:31.815Z,14.34
2022-11-07T20:56:31.766Z,14.28
2022-11-07T21:01:31.960Z,14.23
2022-11-07T21:06:31.647Z,14.07
2022-11-07T21:11:31.592Z,14.06
2022-11-07T21:16:31.539Z,13.90
2022-11-07T21:21:31.513Z,13.91
2022-11-07T21:26:31.430Z,13.87
2022-11-07T21:31:31.377Z,13.97
2022-11-07T21:36:31.321Z,13.94
2022-11-07T21:41:31.287Z,13.94
2022-11-07T21:46:31.617Z,13.93
2022-11-07T21:51:31.154Z,13.90
2022-11-07T21:56:31.106Z,14.03
2022-11-07T22:01:31.209Z,14.08
2022-11-07T22:06:30.991Z,14.14
2022-11-07T22:11:30.938Z,14.12
2022-11-07T22:16:31.165Z,14.04
2022-11-07T22:21:30.849Z,14.06
2022-11-07T22:26:30.780Z,13.99
2022-11-07T22:31:30.717Z,13.91
2022-11-07T22:36:30.660Z,13.84
2022-11-07T22:41:30.631Z,13.91
2022-11-07T22:46:30.557Z,13.85
2022-11-07T22:51:30.500Z,13.82
2022-11-07T22:56:30.447Z,13.73
2022-11-07T23:01:30.465Z,13.71
2022-11-07T23:06:30.343Z,13.71
2022-11-07T23:11:47.690Z,13.73
2022-11-07T23:16:32.762Z,13.68
2022-11-07T23:21:37.235Z,13.63
2022-11-07T23:26:30.123Z,13.54
2022-11-07T23:31:30.066Z,13.48
2022-11-07T23:36:30.018Z,13.61
2022-11-07T23:41:29.977Z,13.55
2022-11-07T23:46:29.910Z,13.49
2022-11-07T23:51:29.847Z,13.43
2022-11-07T23:56:29.801Z,13.33
